createdAt,value
2023-01-17T00:02:19.276Z,19.63
2023-01-17T00:05:05.258Z,20.50
2023-01-17T00:07:51.164Z,19.52
2023-01-17T00:10:20.253Z,18.83
2023-01-17T00:12:53.407Z,15.27
2023-01-17T00:15:22.884Z,18.65
2023-01-17T00:17:50.644Z,20.98
2023-01-17T00:20:38.436Z,20.20
2023-01-17T00:23:35.614Z,20.45
2023-01-17T00:26:03.128Z,18.15
2023-01-17T00:28:38.693Z,17.85
2023-01-17T00:31:08.453Z,18.48
2023-01-17T00:33:35.546Z,19.10
2023-01-17T00:36:03.544Z,20.50
2023-01-17T00:38:32.805Z,19.38
2023-01-17T00:41:04.794Z,19.75
2023-01-17T00:43:51.336Z,20.63
2023-01-17T00:46:37.644Z,19.20
2023-01-17T00:49:23.737Z,19.20
2023-01-17T00:52:10.109Z,17.98
2023-01-17T00:54:55.743Z,20.55
2023-01-17T00:57:41.295Z,19.80
2023-01-17T01:00:27.415Z,20.83
2023-01-17T01:03:12.776Z,19.90
2023-01-17T01:05:58.076Z,22.25
2023-01-17T01:08:46.452Z,22.27
2023-01-17T01:11:38.403Z,22.20
2023-01-17T01:14:25.177Z,27.20
2023-01-17T01:17:10.929Z,26.60
2023-01-17T01:19:56.373Z,26.75
2023-01-17T01:22:41.682Z,24.63
2023-01-17T01:25:27.626Z,23.45
2023-01-17T01:28:25.144Z,23.45
2023-01-17T01:31:10.704Z,24.60
2023-01-17T01:33:37.760Z,28.00
2023-01-17T01:36:08.040Z,29.75
2023-01-17T01:38:35.125Z,29.35
2023-01-17T01:41:02.469Z,28.58
2023-01-17T01:43:58.687Z,28.77
2023-01-17T01:46:29.925Z,29.65
2023-01-17T01:49:24.863Z,30.58
2023-01-17T01:51:56.646Z,30.98
2023-01-17T01:54:29.899Z,32.17
2023-01-17T01:56:59.680Z,26.73
2023-01-17T01:59:27.393Z,32.83
2023-01-17T02:01:58.235Z,32.88
2023-01-17T02:04:26.892Z,33.92
2023-01-17T02:07:08.191Z,37.15
2023-01-17T02:09:35.322Z,35.70
2023-01-17T02:12:03.583Z,40.95
2023-01-17T02:14:30.694Z,37.88
2023-01-17T02:17:40.889Z,37.97
2023-01-17T02:20:25.514Z,36.60
2023-01-17T02:23:13.785Z,38.28
2023-01-17T02:26:16.693Z,37.00
2023-01-17T02:29:07.402Z,37.80
2023-01-17T02:31:45.446Z,37.40
2023-01-17T02:34:15.492Z,36.05
2023-01-17T02:36:58.910Z,37.17
2023-01-17T02:39:34.539Z,31.63
2023-01-17T02:42:06.602Z,28.75
2023-01-17T02:44:40.897Z,22.55
2023-01-17T02:47:25.335Z,21.73
2023-01-17T02:50:12.504Z,19.38
2023-01-17T02:52:45.388Z,18.35
2023-01-17T02:55:43.314Z,18.97
2023-01-17T02:58:40.006Z,17.88
2023-01-17T03:01:25.249Z,17.85
2023-01-17T03:04:27.973Z,17.35
2023-01-17T03:07:00.511Z,17.92
2023-01-17T03:09:29.344Z,17.08
2023-01-17T03:11:58.369Z,18.30
2023-01-17T03:14:25.707Z,18.70
2023-01-17T03:16:53.242Z,17.65
2023-01-17T03:19:20.258Z,17.17
2023-01-17T03:21:47.389Z,17.67
2023-01-17T03:24:14.355Z,17.33
2023-01-17T03:26:44.935Z,17.60
2023-01-17T03:29:11.978Z,17.95
2023-01-17T03:31:38.973Z,17.10
2023-01-17T03:34:05.937Z,18.05
2023-01-17T03:36:33.014Z,17.35
2023-01-17T03:39:00.130Z,18.80
2023-01-17T03:41:27.078Z,18.13
2023-01-17T03:43:54.085Z,18.23
2023-01-17T03:46:23.691Z,18.15
2023-01-17T03:48:51.209Z,20.52
2023-01-17T03:51:18.633Z,20.55
2023-01-17T03:53:48.496Z,19.77
2023-01-17T03:56:15.746Z,17.42
2023-01-17T03:58:42.783Z,18.63
2023-01-17T04:01:09.975Z,18.85
2023-01-17T04:03:36.971Z,20.40
2023-01-17T04:06:04.466Z,21.95
2023-01-17T04:08:31.521Z,19.55
2023-01-17T04:10:58.580Z,19.67
2023-01-17T04:13:25.527Z,19.95
2023-01-17T04:15:52.605Z,18.67
2023-01-17T04:18:20.961Z,22.27
2023-01-17T04:20:47.906Z,21.42
2023-01-17T04:23:15.040Z,19.65
2023-01-17T04:25:42.101Z,19.58
2023-01-17T04:28:10.092Z,19.75
2023-01-17T04:30:37.146Z,20.85
2023-01-17T04:33:04.221Z,19.77
2023-01-17T04:35:33.429Z,20.73
2023-01-17T04:38:00.950Z,19.13
2023-01-17T04:40:29.594Z,17.92
2023-01-17T04:42:59.673Z,17.83
2023-01-17T04:45:26.701Z,19.33
2023-01-17T04:47:53.773Z,20.02
2023-01-17T04:50:20.777Z,19.00
2023-01-17T04:52:47.756Z,18.00
2023-01-17T04:55:15.574Z,18.75
2023-01-17T04:57:42.521Z,17.75
2023-01-17T05:00:10.078Z,17.25
2023-01-17T05:02:37.111Z,17.05
2023-01-17T05:05:04.284Z,16.15
2023-01-17T05:07:31.593Z,15.10
2023-01-17T05:10:00.909Z,15.43
2023-01-17T05:12:28.290Z,14.13
2023-01-17T05:14:55.242Z,14.18
2023-01-17T05:17:22.333Z,13.45
2023-01-17T05:19:49.294Z,13.27
2023-01-17T05:22:16.267Z,13.38
2023-01-17T05:24:44.887Z,13.68
2023-01-17T05:27:13.240Z,15.68
2023-01-17T05:29:41.005Z,17.42
2023-01-17T05:32:08.211Z,16.30
2023-01-17T05:34:35.246Z,15.95
2023-01-17T05:37:02.294Z,15.63
2023-01-17T05:39:30.993Z,14.32
2023-01-17T05:41:58.493Z,14.27
2023-01-17T05:44:27.510Z,14.50
2023-01-17T05:46:55.212Z,13.95
2023-01-17T05:49:22.352Z,13.80
2023-01-17T05:51:49.314Z,13.13
2023-01-17T05:54:16.466Z,14.35
2023-01-17T05:56:43.706Z,13.27
2023-01-17T05:59:12.615Z,13.65
2023-01-17T06:01:41.065Z,14.20
2023-01-17T06:04:07.995Z,13.45
2023-01-17T06:06:34.934Z,14.65
2023-01-17T06:09:02.065Z,14.40
2023-01-17T06:11:29.041Z,15.93
2023-01-17T06:13:55.951Z,16.02
2023-01-17T06:16:22.936Z,15.95
2023-01-17T06:18:49.971Z,15.13
2023-01-17T06:21:16.968Z,14.57
2023-01-17T06:23:43.890Z,13.88
2023-01-17T06:26:10.993Z,12.57
2023-01-17T06:28:38.035Z,13.85
2023-01-17T06:31:09.306Z,12.63
2023-01-17T06:33:36.331Z,12.40
2023-01-17T06:36:03.465Z,12.65
2023-01-17T06:38:30.424Z,12.50
2023-01-17T06:41:00.346Z,14.85
2023-01-17T06:43:32.551Z,15.40
2023-01-17T06:46:00.824Z,13.50
2023-01-17T06:48:27.962Z,15.02
2023-01-17T06:50:54.945Z,12.95
2023-01-17T06:53:21.941Z,12.00
2023-01-17T06:55:48.898Z,12.80
2023-01-17T06:58:15.879Z,11.85
2023-01-17T07:00:42.877Z,11.77
2023-01-17T07:03:21.724Z,10.82
2023-01-17T07:05:49.371Z,10.60
2023-01-17T07:08:17.576Z,11.00
2023-01-17T07:10:45.646Z,10.15
2023-01-17T07:13:13.454Z,10.57
2023-01-17T07:15:40.619Z,11.45
2023-01-17T07:18:08.574Z,10.20
2023-01-17T07:20:35.596Z,9.85
2023-01-17T07:23:02.563Z,14.40
2023-01-17T07:25:29.450Z,11.77
2023-01-17T07:27:58.084Z,12.38
2023-01-17T07:30:25.453Z,10.40
2023-01-17T07:32:53.668Z,11.07
2023-01-17T07:35:21.621Z,12.95
2023-01-17T07:37:51.738Z,12.90
2023-01-17T07:40:20.629Z,14.48
2023-01-17T07:42:47.857Z,14.27
2023-01-17T07:45:16.547Z,15.73
2023-01-17T07:47:43.629Z,16.30
2023-01-17T07:50:11.302Z,16.70
2023-01-17T07:52:38.267Z,17.35
2023-01-17T07:55:06.243Z,16.58
2023-01-17T07:57:33.156Z,16.77
2023-01-17T08:00:00.134Z,17.85
2023-01-17T08:02:27.057Z,19.00
2023-01-17T08:04:53.972Z,17.00
2023-01-17T08:07:20.995Z,18.50
2023-01-17T08:09:50.105Z,16.73
2023-01-17T08:12:17.668Z,15.27
2023-01-17T08:14:45.006Z,14.07
2023-01-17T08:17:16.980Z,12.93
2023-01-17T08:19:44.920Z,11.15
2023-01-17T08:22:12.405Z,13.48
2023-01-17T08:24:39.433Z,12.57
2023-01-17T08:27:06.351Z,12.75
2023-01-17T08:29:33.315Z,12.57
2023-01-17T08:32:00.292Z,13.27
2023-01-17T08:34:27.294Z,14.13
2023-01-17T08:36:54.495Z,13.73
2023-01-17T08:39:22.089Z,14.40
2023-01-17T08:41:48.976Z,14.63
2023-01-17T08:44:15.996Z,13.88
2023-01-17T08:46:44.197Z,14.20
2023-01-17T08:49:11.905Z,14.23
2023-01-17T08:51:38.882Z,13.43
2023-01-17T08:54:05.983Z,13.90
2023-01-17T08:56:32.980Z,13.07
2023-01-17T08:58:59.878Z,10.25
2023-01-17T09:01:26.915Z,8.77
2023-01-17T09:03:53.888Z,7.35
2023-01-17T09:06:20.916Z,7.03
2023-01-17T09:08:49.581Z,6.20
2023-01-17T09:11:17.467Z,5.75
2023-01-17T09:13:44.799Z,4.57
2023-01-17T09:16:11.985Z,6.22
2023-01-17T09:18:39.241Z,6.07
2023-01-17T09:21:17.706Z,5.40
2023-01-17T09:23:44.717Z,6.32
2023-01-17T09:26:23.673Z,6.07
2023-01-17T09:28:51.633Z,5.72
2023-01-17T09:31:23.441Z,5.93
2023-01-17T09:33:51.858Z,5.32
2023-01-17T09:36:19.593Z,5.53
2023-01-17T09:38:47.068Z,5.90
2023-01-17T09:41:22.309Z,6.07
2023-01-17T09:43:55.968Z,5.30
2023-01-17T09:46:30.938Z,7.22
2023-01-17T09:49:13.849Z,6.72
2023-01-17T09:51:42.411Z,5.90
2023-01-17T09:54:40.859Z,5.03
2023-01-17T09:57:28.012Z,5.20
2023-01-17T10:00:27.569Z,7.35
2023-01-17T10:03:18.751Z,9.85
2023-01-17T10:06:15.205Z,10.05
2023-01-17T10:09:20.739Z,4.70
2023-01-17T10:12:02.729Z,3.95
2023-01-17T10:14:38.594Z,3.40
2023-01-17T10:17:08.288Z,3.60
2023-01-17T10:19:53.263Z,3.78
2023-01-17T10:22:46.530Z,4.30
2023-01-17T10:25:26.852Z,3.80
2023-01-17T10:28:10.912Z,3.92
2023-01-17T10:31:03.292Z,3.92
2023-01-17T10:33:50.829Z,4.15
2023-01-17T10:36:23.727Z,4.78
2023-01-17T10:39:02.669Z,5.03
2023-01-17T10:41:34.588Z,5.10
2023-01-17T10:44:07.577Z,6.18
2023-01-17T10:46:56.366Z,5.22
2023-01-17T10:49:26.178Z,6.50
2023-01-17T10:51:59.928Z,6.97
2023-01-17T10:56:58.636Z,8.27
2023-01-17T10:59:33.846Z,5.70
2023-01-17T11:02:07.379Z,6.82
2023-01-17T11:04:37.301Z,7.70
2023-01-17T11:07:15.219Z,7.53
2023-01-17T11:09:45.500Z,8.52
2023-01-17T11:12:24.071Z,7.93
2023-01-17T11:15:06.004Z,8.18
2023-01-17T11:17:33.868Z,6.50
2023-01-17T11:20:17.307Z,4.80
2023-01-17T11:22:48.801Z,3.85
2023-01-17T11:25:23.801Z,3.30
2023-01-17T11:28:21.531Z,3.67
2023-01-17T11:31:03.722Z,3.63
2023-01-17T11:33:45.551Z,3.97
2023-01-17T11:36:22.858Z,4.35
2023-01-17T11:39:04.880Z,3.92
2023-01-17T11:41:39.963Z,3.60
2023-01-17T11:44:26.981Z,2.85
2023-01-17T11:47:14.165Z,3.45
2023-01-17T11:49:43.462Z,5.50
2023-01-17T11:52:17.664Z,3.35
2023-01-17T11:54:48.951Z,4.03
2023-01-17T11:57:31.577Z,4.80
2023-01-17T12:00:23.672Z,3.47
2023-01-17T12:03:16.024Z,4.00
2023-01-17T12:06:28.713Z,3.83
2023-01-17T12:09:22.905Z,3.70
2023-01-17T12:12:29.452Z,4.05
2023-01-17T12:15:06.338Z,4.70
2023-01-17T12:18:06.104Z,4.15
2023-01-17T12:20:57.034Z,4.65
2023-01-17T12:23:44.960Z,4.47
2023-01-17T12:26:30.106Z,4.03
2023-01-17T12:29:13.832Z,4.97
2023-01-17T12:32:03.519Z,4.65
2023-01-17T12:34:47.191Z,5.35
2023-01-17T12:37:37.199Z,5.53
2023-01-17T12:40:20.083Z,5.80
2023-01-17T12:43:09.999Z,5.97
2023-01-17T12:45:42.901Z,5.30
2023-01-17T12:48:18.620Z,6.77
2023-01-17T12:50:54.096Z,4.90
2023-01-17T12:53:37.907Z,4.20
2023-01-17T12:56:43.004Z,4.95
2023-01-17T12:59:20.622Z,5.40
2023-01-17T13:01:58.133Z,5.45
2023-01-17T13:04:57.483Z,6.68
2023-01-17T13:07:37.849Z,6.53
2023-01-17T13:10:22.549Z,6.65
2023-01-17T13:12:50.871Z,5.82
2023-01-17T13:15:21.485Z,6.43
2023-01-17T13:18:10.509Z,6.28
2023-01-17T13:21:06.885Z,6.05
2023-01-17T13:23:56.428Z,5.95
2023-01-17T13:26:53.169Z,5.63
2023-01-17T13:29:41.758Z,5.15
2023-01-17T13:32:40.953Z,6.82
2023-01-17T13:35:23.147Z,7.07
2023-01-17T13:38:19.260Z,6.47
2023-01-17T13:41:16.844Z,9.30
2023-01-17T13:44:04.433Z,7.45
2023-01-17T13:46:32.383Z,6.32
2023-01-17T13:49:23.428Z,6.53
2023-01-17T13:52:27.800Z,5.63
2023-01-17T13:54:56.025Z,4.72
2023-01-17T13:57:42.201Z,4.53
2023-01-17T14:00:21.527Z,4.28
2023-01-17T14:02:52.912Z,4.60
2023-01-17T14:05:31.280Z,4.75
2023-01-17T14:08:15.276Z,6.22
2023-01-17T14:13:44.705Z,5.72
2023-01-17T14:16:31.436Z,6.85
2023-01-17T14:18:58.507Z,5.97
2023-01-17T14:21:28.813Z,8.43
2023-01-17T14:24:06.974Z,9.32
2023-01-17T14:26:45.332Z,10.00
2023-01-17T14:29:43.898Z,9.38
2023-01-17T14:32:19.821Z,9.95
2023-01-17T14:34:49.088Z,8.55
2023-01-17T14:37:45.732Z,6.80
2023-01-17T14:40:33.599Z,7.53
2023-01-17T14:43:10.333Z,6.75
2023-01-17T14:45:38.802Z,8.07
2023-01-17T14:48:14.476Z,7.25
2023-01-17T14:50:44.055Z,7.97
2023-01-17T14:53:13.801Z,7.78
2023-01-17T14:55:56.626Z,7.68
2023-01-17T14:58:36.368Z,6.05
2023-01-17T15:01:20.145Z,6.60
2023-01-17T15:03:57.026Z,6.30
2023-01-17T15:06:30.116Z,10.93
2023-01-17T15:09:01.490Z,6.82
2023-01-17T15:11:33.811Z,7.40
2023-01-17T15:14:05.896Z,6.50
2023-01-17T15:16:37.266Z,7.55
2023-01-17T15:19:14.885Z,6.07
2023-01-17T15:21:44.134Z,8.05
2023-01-17T15:24:22.590Z,7.60
2023-01-17T15:26:49.908Z,9.77
2023-01-17T15:29:33.431Z,8.95
2023-01-17T15:32:03.232Z,10.13
2023-01-17T15:34:31.734Z,9.20
2023-01-17T15:37:10.461Z,8.77
2023-01-17T15:39:41.067Z,9.07
2023-01-17T15:42:27.291Z,10.65
2023-01-17T15:44:57.304Z,9.70
2023-01-17T15:47:30.296Z,10.60
2023-01-17T15:49:58.014Z,11.00
2023-01-17T15:52:25.000Z,10.70
2023-01-17T15:54:54.635Z,10.27
2023-01-17T15:57:27.278Z,11.48
2023-01-17T15:59:58.613Z,9.27
2023-01-17T16:02:55.409Z,11.38
2023-01-17T16:05:23.121Z,12.88
2023-01-17T16:08:02.688Z,13.90
2023-01-17T16:10:32.098Z,12.18
2023-01-17T16:12:59.835Z,12.77
2023-01-17T16:15:28.052Z,11.85
2023-01-17T16:18:17.807Z,16.75
2023-01-17T16:21:00.730Z,11.40
2023-01-17T16:23:28.616Z,13.00
2023-01-17T16:25:55.523Z,11.25
2023-01-17T16:28:23.550Z,17.38
2023-01-17T16:30:54.078Z,13.80
2023-01-17T16:33:21.196Z,13.75
2023-01-17T16:35:48.137Z,12.13
2023-01-17T16:38:16.098Z,12.07
2023-01-17T16:40:44.796Z,11.02
2023-01-17T16:43:13.282Z,14.15
2023-01-17T16:45:42.905Z,12.43
2023-01-17T16:48:12.015Z,30.27
2023-01-17T16:50:48.320Z,14.45
2023-01-17T16:53:16.628Z,14.15
2023-01-17T16:55:44.642Z,14.30
2023-01-17T16:58:11.797Z,13.43
2023-01-17T17:00:40.315Z,8.77
2023-01-17T17:03:07.586Z,7.25
2023-01-17T17:05:34.752Z,6.45
2023-01-17T17:08:01.646Z,6.28
2023-01-17T17:10:28.635Z,6.25
2023-01-17T17:12:56.195Z,8.23
2023-01-17T17:15:23.121Z,9.35
2023-01-17T17:17:50.607Z,9.73
2023-01-17T17:20:17.856Z,11.57
2023-01-17T17:22:50.529Z,9.50
2023-01-17T17:25:17.975Z,6.50
2023-01-17T17:27:45.041Z,6.13
2023-01-17T17:30:12.754Z,7.88
2023-01-17T17:32:39.707Z,6.75
2023-01-17T17:35:07.036Z,8.10
2023-01-17T17:37:34.526Z,7.65
2023-01-17T17:40:01.480Z,7.25
2023-01-17T17:42:28.470Z,8.35
2023-01-17T17:44:55.515Z,6.43
2023-01-17T17:47:23.990Z,6.47
2023-01-17T17:49:50.923Z,6.43
2023-01-17T17:52:17.878Z,6.78
2023-01-17T17:54:44.981Z,6.55
2023-01-17T17:57:11.962Z,5.90
2023-01-17T17:59:38.862Z,6.53
2023-01-17T18:02:06.721Z,7.65
2023-01-17T18:04:33.710Z,7.68
2023-01-17T18:07:00.751Z,8.20
2023-01-17T18:09:27.708Z,7.40
2023-01-17T18:11:55.081Z,7.38
2023-01-17T18:14:24.077Z,7.65
2023-01-17T18:16:51.752Z,14.13
2023-01-17T18:19:21.628Z,17.70
2023-01-17T18:21:50.419Z,12.77
2023-01-17T18:24:20.183Z,12.75
2023-01-17T18:26:52.961Z,11.43
2023-01-17T18:29:22.332Z,11.63
2023-01-17T18:31:51.666Z,11.85
2023-01-17T18:34:23.695Z,10.25
2023-01-17T18:36:51.821Z,9.57
2023-01-17T18:39:20.584Z,14.60
2023-01-17T18:41:48.398Z,19.48
2023-01-17T18:44:15.729Z,16.92
2023-01-17T18:46:43.327Z,18.35
2023-01-17T18:49:12.252Z,13.38
2023-01-17T18:51:39.275Z,12.80
2023-01-17T18:54:08.776Z,15.43
2023-01-17T18:56:35.813Z,13.98
2023-01-17T18:59:05.926Z,11.85
2023-01-17T19:01:35.982Z,12.40
2023-01-17T19:04:05.174Z,15.48
2023-01-17T19:06:34.768Z,16.30
2023-01-17T19:09:02.636Z,12.77
2023-01-17T19:11:29.853Z,19.48
2023-01-17T19:13:57.037Z,18.98
2023-01-17T19:16:29.509Z,14.88
2023-01-17T19:18:58.625Z,18.77
2023-01-17T19:21:27.651Z,18.40
2023-01-17T19:23:55.940Z,26.25
2023-01-17T19:26:25.018Z,26.15
2023-01-17T19:28:52.226Z,15.13
2023-01-17T19:31:24.888Z,15.45
2023-01-17T19:33:54.336Z,13.70
2023-01-17T19:36:25.051Z,15.63
2023-01-17T19:39:04.083Z,15.52
2023-01-17T19:41:33.007Z,15.77
2023-01-17T19:44:04.214Z,14.32
2023-01-17T19:46:32.405Z,13.25
2023-01-17T19:48:59.829Z,14.98
2023-01-17T19:51:27.637Z,15.27
2023-01-17T19:53:55.616Z,14.82
2023-01-17T19:56:25.085Z,15.43
2023-01-17T19:58:52.711Z,16.85
2023-01-17T20:01:26.628Z,15.90
2023-01-17T20:03:56.057Z,15.70
2023-01-17T20:06:29.320Z,15.45
2023-01-17T20:08:57.213Z,16.67
2023-01-17T20:11:26.056Z,17.35
2023-01-17T20:13:55.383Z,16.35
2023-01-17T20:16:23.771Z,16.95
2023-01-17T20:18:50.974Z,13.77
2023-01-17T20:21:23.747Z,13.70
2023-01-17T20:23:51.958Z,14.10
2023-01-17T20:26:22.462Z,13.10
2023-01-17T20:28:51.564Z,15.82
2023-01-17T20:31:24.747Z,16.77
2023-01-17T20:33:54.235Z,16.08
2023-01-17T20:36:24.057Z,16.63
2023-01-17T20:38:51.604Z,14.93
2023-01-17T20:41:28.718Z,16.05
2023-01-17T20:43:58.714Z,17.10
2023-01-17T20:46:27.924Z,16.75
2023-01-17T20:48:57.717Z,15.80
2023-01-17T20:51:26.429Z,14.80
2023-01-17T20:53:58.538Z,12.43
2023-01-17T20:56:26.821Z,13.07
2023-01-17T20:58:57.956Z,13.13
2023-01-17T21:01:25.174Z,14.30
2023-01-17T21:03:53.953Z,13.98
2023-01-17T21:06:23.208Z,14.90
2023-01-17T21:08:50.684Z,12.93
2023-01-17T21:11:20.098Z,14.68
2023-01-17T21:13:48.829Z,13.77
2023-01-17T21:16:16.939Z,14.35
2023-01-17T21:18:50.719Z,13.82
2023-01-17T21:23:53.970Z,12.75
2023-01-17T21:26:22.732Z,13.13
2023-01-17T21:28:50.859Z,12.50
2023-01-17T21:31:25.162Z,9.48
2023-01-17T21:34:04.426Z,8.63
2023-01-17T21:36:33.929Z,10.20
2023-01-17T21:39:04.771Z,12.27
2023-01-17T21:41:38.811Z,7.65
2023-01-17T21:44:11.341Z,7.43
2023-01-17T21:46:39.518Z,7.63
2023-01-17T21:49:08.720Z,14.95
2023-01-17T21:51:53.996Z,15.30
2023-01-17T21:54:41.682Z,14.93
2023-01-17T21:57:27.958Z,14.85
2023-01-17T21:59:54.926Z,15.00
2023-01-17T22:02:22.102Z,14.07
2023-01-17T22:04:49.297Z,13.30
2023-01-17T22:07:16.687Z,13.60
2023-01-17T22:09:43.655Z,13.60
2023-01-17T22:12:11.135Z,15.93
2023-01-17T22:14:38.655Z,14.38
2023-01-17T22:17:06.300Z,14.20
2023-01-17T22:19:33.918Z,14.45
2023-01-17T22:22:01.216Z,13.50
2023-01-17T22:24:28.196Z,13.52
2023-01-17T22:26:55.132Z,13.05
2023-01-17T22:29:22.864Z,11.85
2023-01-17T22:31:49.854Z,12.73
2023-01-17T22:34:18.843Z,12.98
2023-01-17T22:36:45.786Z,11.27
2023-01-17T22:39:12.808Z,10.63
2023-01-17T22:41:39.759Z,10.52
2023-01-17T22:44:07.550Z,9.98
2023-01-17T22:46:38.448Z,13.77
2023-01-17T22:49:07.655Z,13.95
2023-01-17T22:51:35.290Z,9.65
2023-01-17T22:54:02.252Z,10.25
2023-01-17T22:56:32.164Z,9.93
2023-01-17T22:59:00.802Z,9.23
2023-01-17T23:01:32.678Z,11.95
2023-01-17T23:04:04.392Z,13.85
2023-01-17T23:06:37.178Z,14.52
2023-01-17T23:09:08.332Z,15.07
2023-01-17T23:11:40.909Z,14.88
2023-01-17T23:14:11.527Z,15.82
2023-01-17T23:17:00.012Z,15.15
2023-01-17T23:19:29.322Z,17.77
2023-01-17T23:22:16.819Z,17.45
2023-01-17T23:25:05.209Z,15.90
2023-01-17T23:27:51.890Z,16.60
2023-01-17T23:30:47.791Z,18.95
2023-01-17T23:33:17.309Z,16.95
2023-01-17T23:35:46.166Z,19.98
2023-01-17T23:38:28.741Z,15.35
2023-01-17T23:41:26.009Z,16.80
2023-01-17T23:43:54.900Z,16.10
2023-01-17T23:46:22.419Z,13.95
2023-01-17T23:48:49.624Z,12.88
2023-01-17T23:51:16.846Z,11.75
2023-01-17T23:53:44.156Z,10.50
2023-01-17T23:56:19.926Z,10.43
2023-01-17T23:58:47.091Z,9.65
